Latest Coastal Weather Observations for Holmes Reef

IDQ60701

Issued at 5:15 am EST Saturday 19 April 2014 (issued every 10 minutes, with the page automatically refreshed every 10 minutes)

About coastal observations | Map of coastal stations | Coastal observations for QLD | Marine services | Other Formats
Station Details ID: 200732 Name: HOLMES REEF Lat: -16.47 Lon: 147.87 Height: 1.9 m
Data from the previous 72 hours. | See also: Recent months at Holmes Reef
Date/Time
EST
Temp

°C
Wind Pressure Rain
since 9am
mm
Weather Cloud Vis
km
Sea
Height
m
Swell
Dir
 
Speed
knots
Gust
knots
hPa Trend Height
m
Period
s
Dir
19/05:00am 26.5 E 17 20 1013.6 - - - - - - - - -
19/04:30am 26.5 E 18 21 1013.5 - - - - - - - - -
19/04:15am 26.6 E 18 - 1013.2 - - - - - - - - -
19/04:00am 26.5 E 19 21 1013.5 - - - - - - - - -
19/03:30am 26.5 E 18 20 1013.5 - - - - - - - - -
19/03:15am 26.4 E 18 - 1013.2 - - - - - - - - -
19/03:00am 26.6 E 19 22 1013.5 - - - - - - - - -
19/02:30am 26.6 E 19 21 1013.6 - - - - - - - - -
19/02:15am 26.7 E 19 - 1013.4 - - - - - - - - -
19/02:00am 26.6 E 18 21 1013.9 - - - - - - - - -
19/01:30am 26.6 E 18 21 1014.2 - - - - - - - - -
19/01:15am 26.4 E 18 - 1014.0 - - - - - - - - -
19/01:00am 26.7 E 17 21 1014.4 - - - - - - - - -
19/12:30am 26.7 E 18 21 1014.5 - - - - - - - - -
19/12:15am 26.8 E 19 - 1014.3 - - - - - - - - -
19/12:00am 26.8 E 19 22 1014.7 - - - - - - - - -
 
Date/Time
EST
Temp

°C
Wind Pressure Rain
since 9am
mm
Weather Cloud Vis
km
Sea
Height
m
Swell
Dir
 
Speed
knots
Gust
knots
hPa Trend Height
m
Period
s
Dir
18/11:30pm 26.7 E 20 23 1014.9 - - - - - - - - -
18/11:15pm 26.8 E 20 - 1014.7 - - - - - - - - -
18/11:00pm 26.7 E 19 23 1015.1 - - - - - - - - -
18/10:30pm 26.9 E 18 21 1015.1 - - - - - - - - -
18/10:15pm 26.8 E 19 - 1014.8 - - - - - - - - -
18/10:00pm 26.9 E 18 21 1015.1 - - - - - - - - -
18/09:30pm 26.9 E 19 21 1015.2 - - - - - - - - -
18/09:15pm 27.0 E 20 - 1014.9 - - - - - - - - -
18/09:00pm 26.9 ESE 18 21 1015.3 - - - - - - - - -
18/08:30pm 27.1 ESE 19 21 1015.4 - - - - - - - - -
18/08:15pm 26.9 ESE 18 - 1014.9 - - - - - - - - -
18/08:00pm 26.9 ESE 19 21 1015.1 - - - - - - - - -
18/07:30pm 27.1 ESE 18 22 1014.6 - - - - - - - - -
18/07:15pm 27.0 E 19 - 1014.1 - - - - - - - - -
18/07:00pm 26.9 ESE 18 20 1014.1 - - - - - - - - -
18/06:30pm 26.9 ESE 18 20 1013.8 - - - - - - - - -
18/06:15pm 26.9 ESE 18 - 1013.4 - - - - - - - - -
18/05:30pm 26.9 E 18 20 1013.1 - - - - - - - - -
18/05:15pm 27.0 ESE 17 - 1012.7 - - - - - - - - -
18/05:00pm 27.2 ESE 17 21 1012.9 - - - - - - - - -
18/04:30pm 27.1 ESE 17 19 1012.7 - - - - - - - - -
18/04:15pm 27.1 ESE 17 - 1012.3 - - - - - - - - -
18/04:00pm 27.1 ESE 17 19 1012.4 - - - - - - - - -
18/03:30pm 27.3 ESE 18 21 1012.2 - - - - - - - - -
18/03:15pm 27.2 ESE 18 - 1011.8 - - - - - - - - -
18/03:00pm 27.1 ESE 17 21 1012.1 - - - - - - - - -
18/02:30pm 27.1 E 17 20 1012.3 - - - - - - - - -
18/02:15pm 27.1 E 18 - 1012.1 - - - - - - - - -
18/02:00pm 27.1 E 18 20 1012.5 - - - - - - - - -
18/01:30pm 27.0 E 19 22 1012.7 - - - - - - - - -
18/01:15pm 27.1 E 17 - 1012.5 - - - - - - - - -
18/01:00pm 27.3 E 17 19 1012.9 - - - - - - - - -
18/12:30pm 27.3 E 18 21 1013.1 - - - - - - - - -
18/12:15pm 27.1 E 19 - 1012.9 - - - - - - - - -
18/12:00pm 27.3 ESE 18 22 1013.4 - - - - - - - - -
18/11:30am 27.3 E 16 19 1013.7 - - - - - - - - -
18/11:15am 27.2 E 18 - 1013.7 - - - - - - - - -
18/11:00am 27.2 E 19 21 1014.2 - - - - - - - - -
18/10:30am 27.4 E 20 23 1014.4 - - - - - - - - -
18/10:15am 27.2 E 18 - 1014.1 - - - - - - - - -
18/10:00am 27.3 E 19 21 1014.4 - - - - - - - - -
18/09:30am 27.3 E 21 25 1014.4 - - - - - - - - -
18/09:15am 27.2 E 22 - 1014.0 - - - - - - - - -
18/09:00am 27.2 E 19 22 1014.3 - - - - - - - - -
18/08:30am 27.2 E 19 22 1014.3 - - - - - - - - -
18/08:15am 27.3 E 20 - 1013.9 - - - - - - - - -
18/08:00am 27.2 E 20 23 1014.1 - - - - - - - - -
18/07:30am 27.1 E 20 23 1013.9 - - - - - - - - -
18/07:15am 27.1 E 19 - 1013.5 - - - - - - - - -
18/07:00am 26.9 E 19 22 1013.7 - - - - - - - - -
18/06:30am 26.8 E 21 24 1013.2 - - - - - - - - -
18/06:15am 26.9 E 19 - 1012.7 - - - - - - - - -
18/06:00am 26.8 E 19 24 1013.0 - - - - - - - - -
18/05:30am 26.9 E 19 23 1012.7 - - - - - - - - -
18/05:15am 26.9 E 20 - 1012.3 - - - - - - - - -
18/05:00am 26.7 E 19 22 1012.5 - - - - - - - - -
18/04:30am 26.9 E 20 22 1012.2 - - - - - - - - -
18/04:15am 26.7 E 20 - 1011.9 - - - - - - - - -
18/04:00am 26.9 E 20 23 1012.2 - - - - - - - - -
18/03:30am 27.0 E 20 23 1012.2 - - - - - - - - -
18/03:15am 27.0 E 19 - 1012.1 - - - - - - - - -
18/03:00am 26.9 E 19 22 1012.4 - - - - - - - - -
18/02:30am 26.8 E 19 22 1012.6 - - - - - - - - -
18/02:15am 27.0 E 20 - 1012.3 - - - - - - - - -
18/02:00am 27.0 E 20 22 1012.9 - - - - - - - - -
18/01:30am 27.0 E 19 22 1013.1 - - - - - - - - -
18/01:15am 27.0 E 20 - 1012.9 - - - - - - - - -
18/01:00am 27.0 E 19 22 1013.5 - - - - - - - - -
18/12:30am 27.2 E 20 23 1014.0 - - - - - - - - -
18/12:15am 27.2 E 21 - 1013.9 - - - - - - - - -
18/12:00am 27.2 E 19 23 1014.3 - - - - - - - - -
 
Date/Time
EST
Temp

°C
Wind Pressure Rain
since 9am
mm
Weather Cloud Vis
km
Sea
Height
m
Swell
Dir
 
Speed
knots
Gust
knots
hPa Trend Height
m
Period
s
Dir
17/11:30pm 27.2 E 19 21 1014.6 - - - - - - - - -
17/11:15pm 27.3 E 20 - 1014.3 - - - - - - - - -
17/11:00pm 27.1 E 19 22 1014.7 - - - - - - - - -
17/10:30pm 27.4 E 18 22 1014.8 - - - - - - - - -
17/10:15pm 27.1 E 19 - 1014.6 - - - - - - - - -
17/10:00pm 27.0 E 18 22 1015.0 - - - - - - - - -
17/09:30pm 27.3 E 19 22 1015.1 - - - - - - - - -
17/09:15pm 27.2 E 20 - 1014.8 - - - - - - - - -
17/09:00pm 27.2 E 19 23 1015.1 - - - - - - - - -
17/08:30pm 27.4 E 21 24 1015.0 - - - - - - - - -
17/08:15pm 27.3 E 21 - 1014.5 - - - - - - - - -
17/08:00pm 27.3 E 22 25 1014.7 - - - - - - - - -
17/07:30pm 27.3 E 21 25 1014.4 - - - - - - - - -
17/07:15pm 27.3 ESE 21 - 1013.8 - - - - - - - - -
17/07:00pm 27.5 ESE 21 23 1013.9 - - - - - - - - -
17/06:30pm 27.3 ESE 20 23 1013.3 - - - - - - - - -
17/06:15pm 27.4 ESE 19 - 1013.0 - - - - - - - - -
17/06:00pm 27.3 ESE 19 22 1013.2 - - - - - - - - -
17/05:30pm 27.4 ESE 18 20 1013.0 - - - - - - - - -
17/05:15pm 27.4 ESE 18 - 1012.7 - - - - - - - - -
17/05:00pm 27.4 ESE 19 22 1012.7 - - - - - - - - -
17/04:30pm 27.5 ESE 17 20 1012.6 - - - - - - - - -
17/04:15pm 27.6 ESE 17 - 1012.2 - - - - - - - - -
17/04:00pm 27.3 ESE 17 19 1012.3 - - - - - - - - -
17/03:30pm 27.4 ESE 16 19 1012.0 - - - - - - - - -
17/03:15pm 27.4 ESE 18 - 1011.7 - - - - - - - - -
17/03:00pm 27.4 ESE 17 19 1011.9 - - - - - - - - -
17/02:30pm 27.5 ESE 16 18 1011.9 - - - - - - - - -
17/02:15pm 27.5 ESE 18 - 1011.7 - - - - - - - - -
17/02:00pm 27.5 ESE 17 19 1012.1 - - - - - - - - -
17/01:30pm 27.4 ESE 17 20 1012.4 - - - - - - - - -
17/01:15pm 27.5 ESE 17 - 1012.2 - - - - - - - - -
17/01:00pm 27.5 ESE 17 19 1012.8 - - - - - - - - -
17/12:30pm 27.5 ESE 18 20 1013.1 - - - - - - - - -
17/12:15pm 27.4 ESE 18 - 1013.0 - - - - - - - - -
17/12:00pm 27.4 ESE 17 19 1013.5 - - - - - - - - -
17/11:30am 27.5 ESE 17 19 1013.9 - - - - - - - - -
17/11:15am 27.6 ESE 17 - 1013.8 - - - - - - - - -
17/11:00am 27.4 ESE 17 19 1014.4 - - - - - - - - -
17/10:30am 27.5 ESE 17 19 1014.5 - - - - - - - - -
17/10:15am 27.5 ESE 17 - 1014.3 - - - - - - - - -
17/10:00am 27.4 ESE 18 21 1014.7 - - - - - - - - -
17/09:30am 27.4 E 19 21 1014.6 - - - - - - - - -
17/09:15am 27.3 ESE 19 - 1014.3 - - - - - - - - -
17/09:00am 27.5 ESE 19 21 1014.5 - - - - - - - - -
17/08:30am 27.5 E 19 21 1014.4 - - - - - - - - -
17/08:15am 27.3 ESE 19 - 1014.1 - - - - - - - - -
17/08:00am 27.3 E 17 19 1014.2 - - - - - - - - -
17/07:30am 27.3 E 19 21 1013.9 - - - - - - - - -
17/07:15am 27.2 E 19 - 1013.5 - - - - - - - - -
17/07:00am 27.3 ESE 19 22 1013.4 - - - - - - - - -
17/06:30am 27.3 E 19 23 1013.0 - - - - - - - - -
17/06:15am 27.2 E 20 - 1012.5 - - - - - - - - -
17/06:00am 27.2 ESE 20 24 1012.5 - - - - - - - - -
17/05:30am 27.3 ESE 20 23 1012.1 - - - - - - - - -
17/05:15am 27.2 E 20 - 1011.6 - - - - - - - - -
17/05:00am 27.3 E 20 23 1011.8 - - - - - - - - -
17/04:30am 27.1 E 20 23 1011.5 - - - - - - - - -
17/04:15am 26.7 E 20 - 1011.2 - - - - - - - - -
17/04:00am 26.2 E 16 22 1011.5 - - - - - - - - -
17/03:30am 26.5 E 18 23 1011.5 - - - - - - - - -
17/03:15am 26.8 E 20 - 1011.4 - - - - - - - - -
17/03:00am 27.2 E 20 22 1011.7 - - - - - - - - -
17/02:30am 27.2 E 18 20 1011.8 - - - - - - - - -
17/02:15am 27.1 E 19 - 1011.6 - - - - - - - - -
17/02:00am 27.4 E 18 21 1011.9 - - - - - - - - -
17/01:30am 27.2 E 19 22 1012.1 - - - - - - - - -
17/01:15am 27.2 E 20 - 1011.9 - - - - - - - - -
17/01:00am 27.2 E 20 24 1012.3 - - - - - - - - -
17/12:30am 27.5 E 18 21 1012.8 - - - - - - - - -
17/12:15am 27.3 E 16 - 1012.7 - - - - - - - - -
17/12:00am 27.3 E 17 19 1013.0 - - - - - - - - -
 
Date/Time
EST
Temp

°C
Wind Pressure Rain
since 9am
mm
Weather Cloud Vis
km
Sea
Height
m
Swell
Dir
 
Speed
knots
Gust
knots
hPa Trend Height
m
Period
s
Dir
16/11:30pm 27.4 E 18 21 1013.1 - - - - - - - - -
16/11:15pm 27.3 E 17 - 1012.9 - - - - - - - - -
16/11:00pm 27.4 E 18 21 1013.3 - - - - - - - - -
16/10:30pm 27.5 E 19 21 1013.1 - - - - - - - - -
16/10:15pm 27.2 ESE 18 - 1012.8 - - - - - - - - -
16/10:00pm 27.3 ESE 17 19 1013.2 - - - - - - - - -
16/09:30pm 27.5 E 18 20 1013.1 - - - - - - - - -
16/09:15pm 27.3 E 17 - 1012.9 - - - - - - - - -
16/09:00pm 27.5 E 18 21 1013.1 - - - - - - - - -
16/08:30pm 27.5 ESE 16 18 1013.1 - - - - - - - - -
16/08:15pm 27.4 ESE 17 - 1012.8 - - - - - - - - -
16/08:00pm 27.5 ESE 17 20 1012.9 - - - - - - - - -
16/07:30pm 27.3 ESE 17 19 1012.4 - - - - - - - - -
16/07:15pm 27.3 ESE 16 - 1011.9 - - - - - - - - -
16/07:00pm 27.4 ESE 17 19 1012.1 - - - - - - - - -
16/06:30pm 27.4 ESE 18 19 1011.7 - - - - - - - - -
16/06:15pm 27.3 ESE 17 - 1011.2 - - - - - - - - -
16/06:00pm 27.5 ESE 17 20 1011.3 - - - - - - - - -
16/05:30pm 27.3 ESE 16 18 1011.1 - - - - - - - - -
16/05:15pm 27.4 SE 16 - 1010.8 - - - - - - - - -
16/05:00pm 27.4 ESE 16 18 1011.0 - - - - - - - - -
16/04:30pm 27.5 SE 15 17 1010.8 - - - - - - - - -
16/04:15pm 27.6 ESE 16 - 1010.3 - - - - - - - - -
16/04:00pm 27.7 ESE 15 17 1010.5 - - - - - - - - -
16/03:30pm 27.4 SE 16 18 1010.5 - - - - - - - - -
16/03:15pm 27.3 ESE 15 - 1010.3 - - - - - - - - -
16/03:00pm 27.6 SE 15 17 1010.6 - - - - - - - - -
16/02:30pm 27.4 ESE 15 17 1010.8 - - - - - - - - -
16/02:15pm 27.4 ESE 15 - 1010.6 - - - - - - - - -
16/02:00pm 27.4 ESE 15 17 1011.0 - - - - - - - - -
16/01:30pm 27.4 ESE 15 16 1011.2 - - - - - - - - -
16/01:15pm 27.4 ESE 15 - 1011.2 - - - - - - - - -
16/01:00pm 27.5 ESE 15 17 1011.6 - - - - - - - - -
16/12:30pm 27.2 ESE 16 19 1011.8 - - - - - - - - -
16/12:15pm 27.3 ESE 16 - 1011.7 - - - - - - - - -
16/12:00pm 27.3 ESE 16 18 1012.2 - - - - - - - - -
16/11:30am 27.3 ESE 16 18 1012.8 - - - - - - - - -
16/11:15am 27.3 ESE 16 - 1012.8 - - - - - - - - -
16/11:00am 27.2 ESE 16 19 1013.3 - - - - - - - - -
16/10:30am 27.4 ESE 15 17 1013.7 - - - - - - - - -
16/10:15am 27.3 ESE 16 - 1013.6 - - - - - - - - -
16/10:00am 27.5 ESE 16 18 1014.0 - - - - - - - - -
16/09:30am 27.3 ESE 15 18 1014.0 - - - - - - - - -
16/09:15am 27.3 ESE 16 - 1013.6 - - - - - - - - -
16/09:00am 27.1 ESE 16 19 1013.8 - - - - - - - - -
16/08:30am 27.2 ESE 17 19 1013.4 - - - - - - - - -
16/08:15am 27.2 ESE 17 - 1012.8 - - - - - - - - -
16/08:00am 27.2 ESE 16 19 1013.2 - - - - - - - - -
16/07:30am 27.1 ESE 18 20 1012.9 - - - - - - - - -
16/07:15am 27.1 ESE 18 - 1012.4 - - - - - - - - -
16/07:00am 27.1 ESE 17 19 1012.5 - - - - - - - - -
16/06:30am 27.0 ESE 16 19 1012.2 - - - - - - - - -
16/06:15am 26.9 ESE 17 - 1011.7 - - - - - - - - -
16/06:00am 27.0 ESE 17 19 1011.8 - - - - - - - - -
16/05:30am 27.1 ESE 15 17 1011.6 - - - - - - - - -

Other Formats:

Comma delimited format used in spreadsheet applications
http://www.bom.gov.au/fwo/IDQ60701/IDQ60701.94289.axf

JavaScript Object Notation format (JSON) in row-major order
http://www.bom.gov.au/fwo/IDQ60701/IDQ60701.94289.json